INLO2: Newt Graham Lock And Dam (L&D 18)

Data processed at Sat Mar 10 2018 23:36


All information presented herein is the property of the government of the United States of America and may be revised or deleted at any time without prior notice.
Dissemination of this information without the expressed written consent of the Public Affairs Office, Tulsa District U.S. Army Corps of Engineers is strictly prohibited.
These data are gathered electronically and, as presented, have not undergone any form of quality control. These data are not guaranteed to be valid or correct.
Go to home page.
Go to station list.

Upstream stations:

Downstream station:
Previous Day
Next Day
Current Day
    
SHEF ID:       INLO2     Newt Graham Lock And Dam
STATION TYPE:  NAVIGATION LOCK
Normal Pool:  Bottom =   532.00, Top =   532.50

               PRECIP ELEVATION   STORAGE   TW-ELEV LOCK-ELEV    INFLOW   RELEASE    GATE-1    GATE-2    GATE-3  AIR-TEMP  WIND-DIRWIND-SPEED REL-HUMID SOLAR-RAD   VOLTAGE  BAT-LOAD
                   in        ft     ac-ft        ft        ft       cfs       cfs        ft        ft        ft         F       deg       mph         %      W/m2      volt      volt
              Ccp-Rev   Ccp-Rev   Ccp-Rev   Ccp-Rev   Ccp-Rev  Regi-Rev  Regi-Rev   Ccp-Rev   Ccp-Rev   Ccp-Rev   Ccp-Rev   Ccp-Rev   Ccp-Rev   Ccp-Rev   Ccp-Rev   Ccp-Rev   Ccp-Rev
(US/Central)
03/08 00:00      0.00    532.31     23967    512.22      ----      4438      4177      ----      ----      ----     33.22     61.20      1.00     74.50      0.00     13.48     12.65
03/08 01:00      0.00    532.32     23983    512.22      ----      4402      4178      ----      ----      ----     31.64     24.90      1.20     82.06      0.00     13.48     12.65
03/08 02:00      0.00    532.34     24014    512.24      ----      4403      4180      ----      ----      ----     30.27     37.20      1.90     83.04      0.00     13.48     12.65
03/08 03:00      0.00    532.34     24014    512.23      ----      4404      4181      ----      ----      ----     29.52     33.10      1.40     86.43      0.00     13.48     12.65
03/08 04:00      0.00    532.35     24029    512.24      ----      4405      4181      ----      ----      ----     29.35     23.80      0.50     88.66      0.00     13.48     12.65
03/08 05:00      0.00    532.37     24060    512.25      ----      4332      4182      ----      ----      ----     28.06     21.80      2.40     89.78      0.00     13.48     12.65
03/08 06:00      0.00    532.38     24075    512.25      ----      4370      4184      ----      ----      ----     27.30     20.10      2.50     90.29      0.00     13.48     12.65
03/08 07:00      0.00    532.38     24075    512.25      ----      4333      4184      ----      ----      ----     27.57     11.40      1.60     91.14      0.00     13.47     12.65
03/08 08:00      0.00    532.39     24091    512.26      ----      4297      4185      ----      ----      ----     30.69     13.40      1.90     78.01    113.10     13.48     12.65
03/08 09:00      0.00    532.39     24091    512.24      ----      4297      4185      ----      ----      ----     35.87     50.70      4.20     61.11    327.70     13.48     12.65
03/08 10:00      0.00    532.40     24106    512.20      ----      4335      4186      ----      ----      ----     40.21     80.70      3.10     53.17    524.40     13.48     12.65
03/08 11:00      0.00    532.41     24121    512.18      ----      4298      4187      ----      ----      ----     43.43     46.80      2.80     44.35    683.40     13.48     12.65
03/08 12:00      0.00    532.42     24137    512.18      ----      4262      4188      ----      ----      ----     47.05     47.20      2.70     35.97    779.80     13.48     12.65
03/08 13:00      0.00    532.42     24137    512.14      ----      4187      4188      ----      ----      ----     50.85    149.10      2.20     32.06    822.00     13.48     12.65
03/08 14:00      0.00    532.41     24121    512.13      ----      4150      4188      ----      ----      ----     52.84    289.00      1.50     29.88    769.20     13.48     12.65
03/08 15:00      0.00    532.40     24106    512.10      ----      4112      4187      ----      ----      ----     55.08    166.00      2.70     28.18    702.60     13.49     12.65
03/08 16:00      0.00    532.40     24106    512.09      ----      4149      4186      ----      ----      ----     57.24    160.20      3.20     25.90    536.00     13.49     12.65
03/08 17:00      0.00    532.40     24106    512.07      ----      4112      4186      ----      ----      ----     58.62    152.70      3.70     25.33    350.10     13.49     12.65
03/08 18:00      0.00    532.41     24121    512.08      ----      4224      4187      ----      ----      ----     58.15    143.10      4.50     27.89    122.30     13.49     12.65
03/08 19:00      0.00    532.38     24075    512.14      ----      4186      4186      ----      ----      ----     54.75    134.90      3.20     35.16      3.90     13.49     12.65
03/08 20:00      0.00    532.41     24121    512.14      ----      4186      4186      ----      ----      ----     52.50    149.20      3.60     38.37      0.00     13.49     12.65
03/08 21:00      0.00    532.40     24106    512.16      ----      4112      4187      ----      ----      ----     51.71    162.20      3.20     38.74      0.00     13.48     12.65
03/08 22:00      0.00    532.40     24106    512.19      ----      4261      4186      ----      ----      ----     50.18    162.90      2.10     41.18      0.00     13.49     12.65
03/08 23:00      0.00    532.39     24091    512.22      ----      4149      4186      ----      ----      ----     49.44    158.70      3.30     41.64      0.00     13.48     12.65